Delta Virtual Airport Information Service

Auckland Airport

ICAO: NZAA Country: New Zealand
Latitude: -37.008 Longitude: 174.792
Latest Arrival : DAC567 (RPVM-NZAA) Latest Departure : DALJUMP (NZAA-KATL)


WX CaptureLIVE
Data provided by noaa.gov | Fetched at 09:56:17

METAR : NZAA 041500Z AUTO 02003KT 9999 BKN080/// 16/15 Q1002 NOSIG

TAF : NZAA 041106Z 0412/0512 33005KT 9999 SCT030 BECMG 0500/0502 27010KT BECMG 0506/0508 33005KT


Runway Data for NZAA
Data provided by openaviationdata.com

Runway ID Mag Var Hdg Length Elevation Surface ILS Freq ILS Id ILS Slope
05R 20 50° 11925 ft 23 ft Concrete 110.3 IAA 3
23L 20 230° 11925 ft 23 ft Concrete 109.9 IMG 3

Auckland Airport, New Zealand
Use only for reference purposes



Not for navigational purposes.